Time;durP1;ratioP1;P1;durP2;ratioP2;P2;SDS_P1;SDS_P2;PMS_P1;PMS_P2;Temp;Humidity;BMP_temperature;BMP_pressure;BME280_temperature;BME280_humidity;BME280_pressure;Samples;Min_cycle;Max_cycle;Signal;HPM_P1;HPM_P2
2023/08/31 00:01:14;;;;;;;0.22;0.22;;;20.00;99.90;;;;;;5060429;28;20119;-80
2023/08/31 00:03:40;;;;;;;0.00;0.00;;;20.20;99.90;;;;;;5063222;28;20710;-78
2023/08/31 00:06:08;;;;;;;0.00;0.00;;;20.10;99.90;;;;;;5081449;28;20657;-78
2023/08/31 00:08:35;;;;;;;0.10;0.10;;;19.80;99.90;;;;;;5081749;28;20706;-79
2023/08/31 00:11:01;;;;;;;1.92;1.83;;;19.70;99.90;;;;;;5064053;28;20398;-79
2023/08/31 00:13:27;;;;;;;0.00;0.00;;;19.80;99.90;;;;;;5082152;28;20628;-79
2023/08/31 00:15:58;;;;;;;0.00;0.00;;;19.90;99.90;;;;;;5082043;28;20442;-77
2023/08/31 00:18:25;;;;;;;0.00;0.00;;;20.20;99.90;;;;;;5081901;28;20421;-78
2023/08/31 00:20:51;;;;;;;0.10;0.10;;;17.10;99.90;;;;;;5081592;28;20036;-78
2023/08/31 00:23:18;;;;;;;0.00;0.00;;;19.50;99.90;;;;;;5081504;28;20397;-78
2023/08/31 00:25:49;;;;;;;0.00;0.00;;;19.40;99.90;;;;;;5081065;28;20423;-77
2023/08/31 00:28:18;;;;;;;0.00;0.00;;;19.40;99.90;;;;;;5063148;28;20160;-78
2023/08/31 00:30:48;;;;;;;0.00;0.00;;;19.40;99.90;;;;;;5063891;28;20521;-78
2023/08/31 00:33:15;;;;;;;0.00;0.00;;;18.90;99.90;;;;;;5080957;28;20017;-79
2023/08/31 00:35:46;;;;;;;0.00;0.00;;;;;;;;;;5063368;28;20602;-78
2023/08/31 00:38:15;;;;;;;0.00;0.00;;;19.70;99.90;;;;;;5064162;28;20059;-80
2023/08/31 00:40:45;;;;;;;0.00;0.00;;;19.60;99.90;;;;;;5081803;28;20529;-78
2023/08/31 00:43:11;;;;;;;0.20;0.20;;;;;;;;;;5063416;28;20027;-78
2023/08/31 00:45:38;;;;;;;0.00;0.00;;;19.20;99.90;;;;;;5062272;28;20019;-78
2023/08/31 00:48:05;;;;;;;0.05;0.05;;;19.30;99.90;;;;;;5064763;28;20032;-79
2023/08/31 00:50:31;;;;;;;0.00;0.00;;;19.80;99.90;;;;;;5080662;28;20103;-78
2023/08/31 00:52:57;;;;;;;0.00;0.00;;;19.40;99.90;;;;;;5081296;28;20020;-80
2023/08/31 00:55:26;;;;;;;0.00;0.00;;;20.80;99.90;;;;;;5061516;28;20119;-78
2023/08/31 00:57:52;;;;;;;0.00;0.00;;;19.20;99.90;;;;;;5062502;28;20021;-79
2023/08/31 01:00:18;;;;;;;0.55;0.55;;;19.20;99.90;;;;;;5061667;28;20029;-78
2023/08/31 01:03:10;;;;;;;0.00;0.00;;;19.10;99.90;;;;;;5080912;28;20031;-78
2023/08/31 01:05:44;;;;;;;0.00;0.00;;;19.40;99.90;;;;;;5070139;28;20036;-79
2023/08/31 01:08:36;;;;;;;0.00;0.00;;;19.60;99.90;;;;;;5080047;28;20225;-80
2023/08/31 01:11:16;;;;;;;0.00;0.00;;;19.60;99.90;;;;;;5061937;28;20067;-78
2023/08/31 01:13:50;;;;;;;0.10;0.10;;;19.90;99.90;;;;;;5061001;28;20066;-79
2023/08/31 01:16:17;;;;;;;0.00;0.00;;;19.10;99.90;;;;;;5061368;28;20024;-78
2023/08/31 01:18:47;;;;;;;0.00;0.00;;;19.20;99.90;;;;;;5080285;28;20304;-79
2023/08/31 01:21:23;;;;;;;0.10;0.10;;;18.20;99.90;;;;;;5081363;28;20035;-80
2023/08/31 01:23:53;;;;;;;0.00;0.00;;;17.80;99.90;;;;;;5062146;28;20073;-78
2023/08/31 01:26:21;;;;;;;0.10;0.10;;;17.50;99.90;;;;;;5062026;28;20430;-79
2023/08/31 01:28:50;;;;;;;0.10;0.10;;;17.30;99.90;;;;;;5081100;28;20012;-78
2023/08/31 01:31:22;;;;;;;0.00;0.00;;;17.70;99.90;;;;;;5080106;28;20082;-79
2023/08/31 01:33:51;;;;;;;0.00;0.00;;;16.60;99.90;;;;;;5061419;28;20031;-78
2023/08/31 01:36:26;;;;;;;0.00;0.00;;;18.20;99.90;;;;;;5062570;28;20024;-79
2023/08/31 01:39:11;;;;;;;0.03;0.03;;;18.70;99.90;;;;;;5062005;28;20027;-79
2023/08/31 01:41:40;;;;;;;0.00;0.00;;;17.50;99.90;;;;;;5081000;28;20028;-78
2023/08/31 01:44:08;;;;;;;0.00;0.00;;;18.60;99.90;;;;;;5061390;28;20047;-81
2023/08/31 01:46:37;;;;;;;0.00;0.00;;;17.80;99.90;;;;;;5062420;28;20078;-79
2023/08/31 01:49:05;;;;;;;0.00;0.00;;;17.60;99.90;;;;;;5061746;28;20012;-78
2023/08/31 01:51:38;;;;;;;0.00;0.00;;;17.30;99.90;;;;;;5061084;28;20189;-78
2023/08/31 01:54:04;;;;;;;0.00;0.00;;;17.90;99.90;;;;;;5080598;28;20016;-78
2023/08/31 01:56:30;;;;;;;0.10;0.10;;;18.30;99.90;;;;;;5080986;28;20122;-78
2023/08/31 01:58:57;;;;;;;0.00;0.00;;;18.70;99.90;;;;;;5079648;28;20174;-81
2023/08/31 02:01:23;;;;;;;0.00;0.00;;;18.90;99.90;;;;;;5080850;28;20094;-80
2023/08/31 02:03:49;;;;;;;0.00;0.00;;;19.10;99.90;;;;;;5081216;28;20103;-80
2023/08/31 02:06:14;;;;;;;0.00;0.00;;;19.40;99.90;;;;;;5062063;28;20046;-80
2023/08/31 02:08:47;;;;;;;0.00;0.00;;;19.20;99.90;;;;;;5079619;28;20402;-83
2023/08/31 02:11:15;;;;;;;0.00;0.00;;;18.90;99.90;;;;;;5078594;28;20044;-77
2023/08/31 02:13:42;;;;;;;0.57;0.57;;;19.10;99.90;;;;;;5079983;28;20536;-80
2023/08/31 02:16:08;;;;;;;0.00;0.00;;;19.30;99.90;;;;;;5079940;28;20031;-80
2023/08/31 02:18:34;;;;;;;0.00;0.00;;;19.10;99.90;;;;;;5079395;28;20123;-80
2023/08/31 02:21:00;;;;;;;0.10;0.10;;;18.70;99.90;;;;;;5060565;28;20177;-83
2023/08/31 02:23:44;;;;;;;;;;;;;;;;;;;;;
2023/08/31 02:26:11;;;;;;;0.00;0.00;;;19.30;99.90;;;;;;5078442;28;20133;-82
2023/08/31 02:28:37;;;;;;;0.00;0.00;;;19.20;99.90;;;;;;5060751;28;20313;-84
2023/08/31 02:31:03;;;;;;;0.00;0.00;;;19.20;99.90;;;;;;5078383;28;20046;-79
2023/08/31 02:33:29;;;;;;;0.00;0.00;;;19.50;99.90;;;;;;5078913;28;20043;-81
2023/08/31 02:35:55;;;;;;;0.00;0.00;;;19.40;99.90;;;;;;5078399;28;20047;-79
2023/08/31 02:38:21;;;;;;;0.10;0.10;;;19.20;99.90;;;;;;5060577;28;20354;-80
2023/08/31 02:40:48;;;;;;;0.00;0.00;;;22.40;99.90;;;;;;5078274;28;20055;-78
2023/08/31 02:43:14;;;;;;;0.10;0.10;;;18.50;99.90;;;;;;5059631;28;20514;-79
2023/08/31 02:45:40;;;;;;;0.00;0.00;;;18.00;99.90;;;;;;5044963;28;20107;-80
2023/08/31 02:48:10;;;;;;;0.00;0.00;;;17.90;99.90;;;;;;5077913;28;20299;-83
2023/08/31 02:50:48;;;;;;;0.00;0.00;;;18.30;99.90;;;;;;5059624;28;20047;-78
2023/08/31 02:53:14;;;;;;;0.00;0.00;;;18.40;99.90;;;;;;5060587;28;20514;-78
2023/08/31 02:55:43;;;;;;;0.00;0.00;;;18.30;99.90;;;;;;5079600;28;20020;-77
2023/08/31 02:58:11;;;;;;;0.00;0.00;;;20.10;99.90;;;;;;5079525;28;20467;-77
2023/08/31 03:00:42;;;;;;;0.00;0.00;;;17.50;99.90;;;;;;5061943;28;20455;-80
2023/08/31 03:03:11;;;;;;;0.00;0.00;;;18.00;99.90;;;;;;5061340;28;20118;-78
2023/08/31 03:05:37;;;;;;;0.00;0.00;;;17.80;99.90;;;;;;5061155;28;20058;-78
2023/08/31 03:08:05;;;;;;;0.00;0.00;;;18.80;99.90;;;;;;5079014;28;20020;-78
2023/08/31 03:10:31;;;;;;;0.10;0.10;;;18.30;99.90;;;;;;5079651;28;20024;-83
2023/08/31 03:12:57;;;;;;;0.00;0.00;;;;;;;;;;5060078;28;20020;-79
2023/08/31 03:15:23;;;;;;;0.28;0.28;;;18.60;99.90;;;;;;5061171;28;20020;-81
2023/08/31 03:17:52;;;;;;;0.47;0.40;;;18.60;99.90;;;;;;5078631;28;20047;-78
2023/08/31 03:20:21;;;;;;;0.00;0.00;;;18.70;99.90;;;;;;5060979;28;20556;-78
2023/08/31 03:22:50;;;;;;;0.28;0.28;;;19.00;99.90;;;;;;5061073;28;20052;-78
2023/08/31 03:25:21;;;;;;;0.05;0.05;;;19.70;99.90;;;;;;5079421;28;20413;-78
2023/08/31 03:27:47;;;;;;;0.00;0.00;;;19.40;99.90;;;;;;5078676;28;20255;-78
2023/08/31 03:30:13;;;;;;;0.13;0.13;;;19.30;99.90;;;;;;5078967;28;20020;-78
2023/08/31 03:32:39;;;;;;;0.00;0.00;;;19.40;99.90;;;;;;5061259;28;20028;-78
2023/08/31 03:35:07;;;;;;;0.00;0.00;;;18.90;99.90;;;;;;5060602;28;20330;-79
2023/08/31 03:37:33;;;;;;;0.00;0.00;;;20.10;99.90;;;;;;5062420;28;20028;-77
2023/08/31 03:39:59;;;;;;;0.00;0.00;;;19.90;99.90;;;;;;5067382;28;20020;-78
2023/08/31 03:42:25;;;;;;;0.00;0.00;;;18.90;99.90;;;;;;5084829;28;20029;-79
2023/08/31 03:44:51;;;;;;;0.00;0.00;;;18.40;99.90;;;;;;5083049;28;20565;-78
2023/08/31 03:47:17;;;;;;;0.00;0.00;;;17.50;99.90;;;;;;5065310;28;20024;-78
2023/08/31 03:49:43;;;;;;;0.00;0.00;;;17.40;99.90;;;;;;5082666;28;20039;-78
2023/08/31 03:52:10;;;;;;;0.10;0.10;;;17.00;99.90;;;;;;5083562;28;20090;-78
2023/08/31 03:54:35;;;;;;;0.57;0.57;;;16.70;99.90;;;;;;5083628;28;20035;-80
2023/08/31 03:57:02;;;;;;;0.00;0.00;;;;;;;;;;5065249;28;20357;-78
2023/08/31 03:59:27;;;;;;;3.00;2.75;;;16.90;99.90;;;;;;5064734;28;20024;-80
2023/08/31 04:01:53;;;;;;;0.00;0.00;;;16.60;99.90;;;;;;5083086;28;20081;-78
2023/08/31 04:04:19;;;;;;;0.00;0.00;;;16.70;99.90;;;;;;5082766;28;20081;-79
2023/08/31 04:06:51;;;;;;;0.00;0.00;;;16.90;99.90;;;;;;5082562;28;20566;-78
2023/08/31 04:09:19;;;;;;;0.00;0.00;;;17.80;99.90;;;;;;5064929;28;20082;-81
2023/08/31 04:11:45;;;;;;;0.00;0.00;;;17.50;99.90;;;;;;5082931;28;20036;-78
2023/08/31 04:14:11;;;;;;;0.10;0.10;;;17.80;99.90;;;;;;5061666;28;20113;-79
2023/08/31 04:16:37;;;;;;;0.03;0.03;;;17.00;99.90;;;;;;5060041;28;20090;-78
2023/08/31 04:19:08;;;;;;;0.93;0.75;;;17.90;99.90;;;;;;5060391;28;20122;-78
2023/08/31 04:21:38;;;;;;;0.00;0.00;;;16.50;99.90;;;;;;5060034;28;20055;-78
2023/08/31 04:24:05;;;;;;;0.00;0.00;;;16.80;99.90;;;;;;5060952;28;20020;-78
2023/08/31 04:26:39;;;;;;;0.00;0.00;;;16.60;99.90;;;;;;5060951;28;20342;-78
2023/08/31 04:29:05;;;;;;;0.10;0.10;;;17.00;99.90;;;;;;5060684;28;20017;-80
2023/08/31 04:31:39;;;;;;;0.00;0.00;;;16.10;99.90;;;;;;5061115;28;20028;-79
2023/08/31 04:34:08;;;;;;;0.00;0.00;;;16.10;99.90;;;;;;5060457;28;20031;-78
2023/08/31 04:36:34;;;;;;;0.00;0.00;;;16.80;99.90;;;;;;5058998;28;20104;-78
2023/08/31 04:38:59;;;;;;;14.60;13.75;;;16.80;99.90;;;;;;5060758;28;20075;-78
2023/08/31 04:41:25;;;;;;;0.00;0.00;;;17.30;99.90;;;;;;5060271;28;20063;-78
2023/08/31 04:43:51;;;;;;;0.10;0.10;;;16.00;99.90;;;;;;5058479;28;20640;-78
2023/08/31 04:46:20;;;;;;;0.00;0.00;;;17.80;99.90;;;;;;5059447;28;20331;-78
2023/08/31 04:48:48;;;;;;;0.00;0.00;;;18.10;99.90;;;;;;5059860;28;20317;-78
2023/08/31 04:51:35;;;;;;;0.00;0.00;;;18.40;99.90;;;;;;5061119;28;20344;-80
2023/08/31 04:54:02;;;;;;;0.00;0.00;;;18.70;99.90;;;;;;5059916;28;20510;-78
2023/08/31 04:56:33;;;;;;;20.08;3.20;;;18.80;99.90;;;;;;5058469;28;20111;-78
2023/08/31 04:59:03;;;;;;;0.00;0.00;;;18.10;99.90;;;;;;5061736;28;20024;-81
2023/08/31 05:01:29;;;;;;;0.20;0.20;;;17.90;99.90;;;;;;5060124;28;20025;-79
2023/08/31 05:03:55;;;;;;;0.00;0.00;;;17.90;99.90;;;;;;5059915;28;20532;-79
2023/08/31 05:06:21;;;;;;;0.57;0.57;;;18.20;99.90;;;;;;5058661;28;20068;-78
2023/08/31 05:08:51;;;;;;;0.00;0.00;;;18.00;99.90;;;;;;5060631;28;20016;-78
2023/08/31 05:11:16;;;;;;;0.00;0.00;;;19.60;99.90;;;;;;5060326;28;20201;-78
2023/08/31 05:13:44;;;;;;;0.00;0.00;;;17.70;99.90;;;;;;5061685;28;20320;-78
2023/08/31 05:16:10;;;;;;;0.00;0.00;;;17.30;99.90;;;;;;5059213;28;20776;-78
2023/08/31 05:18:38;;;;;;;0.00;0.00;;;16.80;99.90;;;;;;5080447;28;20390;-79
2023/08/31 05:21:04;;;;;;;0.00;0.00;;;16.60;99.90;;;;;;5079584;28;20083;-82
2023/08/31 05:23:30;;;;;;;0.00;0.00;;;17.60;99.90;;;;;;5062478;28;20130;-78
2023/08/31 05:26:02;;;;;;;0.00;0.00;;;17.90;99.90;;;;;;5080231;28;20284;-78
2023/08/31 05:28:28;;;;;;;0.00;0.00;;;18.20;99.90;;;;;;5080324;28;20291;-78
2023/08/31 05:30:58;;;;;;;0.43;0.43;;;18.20;99.90;;;;;;5061474;28;20478;-79
2023/08/31 05:33:25;;;;;;;0.20;0.20;;;18.20;99.90;;;;;;5079703;28;20035;-79
2023/08/31 05:35:53;;;;;;;1.58;1.58;;;18.60;99.90;;;;;;5061597;28;20028;-79
2023/08/31 05:38:19;;;;;;;0.00;0.00;;;18.60;99.90;;;;;;5064059;28;20131;-84
2023/08/31 05:40:50;;;;;;;0.00;0.00;;;19.30;99.90;;;;;;5061792;28;20600;-79
2023/08/31 05:43:16;;;;;;;0.75;0.75;;;18.80;99.90;;;;;;5079139;28;20021;-78
2023/08/31 05:45:42;;;;;;;0.00;0.00;;;18.50;99.90;;;;;;5060903;28;20119;-78
2023/08/31 05:48:14;;;;;;;0.00;0.00;;;18.20;99.90;;;;;;5060438;28;20039;-92
2023/08/31 05:50:40;;;;;;;0.00;0.00;;;18.20;99.90;;;;;;5078687;28;20070;-81
2023/08/31 05:53:12;;;;;;;0.00;0.00;;;18.20;99.90;;;;;;5060917;28;20478;-78
2023/08/31 05:55:38;;;;;;;0.00;0.00;;;18.30;99.90;;;;;;5063320;28;20513;-80
2023/08/31 05:58:06;;;;;;;0.00;0.00;;;18.70;99.90;;;;;;5059828;28;20028;-77
2023/08/31 06:00:32;;;;;;;0.00;0.00;;;18.90;99.90;;;;;;5077724;28;20685;-78
2023/08/31 06:02:58;;;;;;;0.00;0.00;;;18.80;99.90;;;;;;5061073;28;20359;-81
2023/08/31 06:05:28;;;;;;;0.00;0.00;;;19.20;99.90;;;;;;5060212;28;20035;-78
2023/08/31 06:08:00;;;;;;;0.00;0.00;;;19.40;99.90;;;;;;5060726;28;20055;-79
2023/08/31 06:10:26;;;;;;;0.00;0.00;;;18.80;99.90;;;;;;5079933;28;20012;-78
2023/08/31 06:12:55;;;;;;;0.10;0.10;;;19.60;99.90;;;;;;5062843;28;20032;-80
2023/08/31 06:15:21;;;;;;;0.00;0.00;;;19.50;99.90;;;;;;5060324;28;20023;-83
2023/08/31 06:17:52;;;;;;;0.10;0.10;;;19.70;99.90;;;;;;5079205;28;20044;-79
2023/08/31 06:20:23;;;;;;;0.00;0.00;;;18.50;99.90;;;;;;5078164;28;20036;-84
2023/08/31 06:22:52;;;;;;;0.00;0.00;;;20.10;99.90;;;;;;5060077;28;20028;-80
2023/08/31 06:25:18;;;;;;;0.00;0.00;;;20.50;99.90;;;;;;5080512;28;20023;-80
2023/08/31 06:27:45;;;;;;;0.00;0.00;;;17.50;99.90;;;;;;5079788;28;20485;-78
2023/08/31 06:30:17;;;;;;;0.00;0.00;;;20.20;99.90;;;;;;5059352;28;20270;-80
2023/08/31 06:32:49;;;;;;;0.00;0.00;;;19.90;99.90;;;;;;5078209;28;20035;-83
2023/08/31 06:35:19;;;;;;;0.00;0.00;;;20.00;99.90;;;;;;5059693;28;20020;-80
2023/08/31 06:37:45;;;;;;;0.00;0.00;;;20.30;99.90;;;;;;5059894;28;20397;-84
2023/08/31 06:40:12;;;;;;;0.00;0.00;;;19.80;99.90;;;;;;5078151;28;20024;-78
2023/08/31 06:42:38;;;;;;;0.00;0.00;;;20.00;99.90;;;;;;5058926;28;20024;-80
2023/08/31 06:45:19;;;;;;;0.00;0.00;;;20.10;99.90;;;;;;5059172;28;20020;-79
2023/08/31 06:47:47;;;;;;;0.00;0.00;;;20.20;99.90;;;;;;5059803;28;20326;-78
2023/08/31 06:50:23;;;;;;;0.10;0.10;;;20.60;99.90;;;;;;5062922;28;20131;-78
2023/08/31 06:52:55;;;;;;;0.00;0.00;;;16.90;99.90;;;;;;5059505;28;20646;-81
2023/08/31 06:55:23;;;;;;;0.00;0.00;;;20.30;99.90;;;;;;5077608;28;20417;-78
2023/08/31 06:57:49;;;;;;;0.10;0.10;;;20.20;99.90;;;;;;5060234;28;20048;-78
2023/08/31 07:00:15;;;;;;;0.00;0.00;;;20.40;99.90;;;;;;5077631;28;20112;-76
2023/08/31 07:02:52;;;;;;;0.20;0.20;;;20.60;99.90;;;;;;5060168;28;20023;-79
2023/08/31 07:05:25;;;;;;;0.10;0.10;;;21.30;99.90;;;;;;5078647;28;20104;-77
2023/08/31 07:07:56;;;;;;;0.00;0.00;;;20.80;99.90;;;;;;5060813;28;20031;-77
2023/08/31 07:10:25;;;;;;;2.28;2.15;;;20.70;99.90;;;;;;5064831;28;20055;-82
2023/08/31 07:12:56;;;;;;;1.55;1.55;;;21.00;99.90;;;;;;5080439;28;20020;-77
2023/08/31 07:15:25;;;;;;;0.30;0.30;;;21.50;99.90;;;;;;5067533;28;20012;-78
2023/08/31 07:17:57;;;;;;;0.00;0.00;;;21.20;99.90;;;;;;5082752;28;20040;-78
2023/08/31 07:20:23;;;;;;;0.00;0.00;;;21.00;99.90;;;;;;5082063;28;20046;-78
2023/08/31 07:22:49;;;;;;;0.00;0.00;;;20.40;99.90;;;;;;5083177;28;20539;-77
2023/08/31 07:25:15;;;;;;;0.00;0.00;;;21.40;99.90;;;;;;5065094;28;20521;-77
2023/08/31 07:27:40;;;;;;;0.05;0.05;;;21.50;99.90;;;;;;5082967;28;20107;-79
2023/08/31 07:30:07;;;;;;;1.15;1.08;;;21.60;99.90;;;;;;5082603;28;20027;-82
2023/08/31 07:32:33;;;;;;;0.00;0.00;;;21.70;99.90;;;;;;5082815;28;20020;-84
2023/08/31 07:34:59;;;;;;;0.00;0.00;;;19.10;99.90;;;;;;5082168;28;20396;-79
2023/08/31 07:37:27;;;;;;;0.00;0.00;;;21.80;99.90;;;;;;5081836;28;20100;-77
2023/08/31 07:39:53;;;;;;;0.00;0.00;;;21.70;99.90;;;;;;5082528;28;20103;-78
2023/08/31 07:42:19;;;;;;;0.00;0.00;;;22.00;99.90;;;;;;5082531;28;20111;-78
2023/08/31 07:44:45;;;;;;;0.00;0.00;;;22.00;99.90;;;;;;5082546;28;20527;-81
2023/08/31 07:47:11;;;;;;;0.00;0.00;;;22.10;99.90;;;;;;5064798;28;20114;-78
2023/08/31 07:49:42;;;;;;;1.92;1.90;;;22.10;99.90;;;;;;5066306;28;20065;-78
2023/08/31 07:52:11;;;;;;;0.03;0.03;;;22.00;99.90;;;;;;5064786;28;20042;-79
2023/08/31 07:54:37;;;;;;;3.65;2.08;;;21.70;99.90;;;;;;5082816;28;20016;-77
2023/08/31 07:57:06;;;;;;;0.25;0.25;;;21.40;99.90;;;;;;5063703;28;20252;-78
2023/08/31 07:59:34;;;;;;;0.00;0.00;;;21.40;99.90;;;;;;5082210;28;20561;-78
2023/08/31 08:02:07;;;;;;;0.00;0.00;;;21.30;99.90;;;;;;5064213;28;20039;-77
2023/08/31 08:04:33;;;;;;;;;;;21.30;99.90;;;;;;5082563;28;20020;-78
2023/08/31 08:06:59;;;;;;;0.10;0.10;;;21.30;99.90;;;;;;5065066;28;19934;-77
2023/08/31 08:09:29;;;;;;;0.00;0.00;;;21.20;99.90;;;;;;5083307;28;20089;-81
2023/08/31 08:11:56;;;;;;;0.00;0.00;;;21.50;99.90;;;;;;5064032;28;20036;-77
2023/08/31 08:14:21;;;;;;;0.00;0.00;;;21.40;99.90;;;;;;5063640;28;20023;-78
2023/08/31 08:16:47;;;;;;;0.00;0.00;;;21.00;99.90;;;;;;5081028;28;20436;-79
2023/08/31 08:19:13;;;;;;;0.00;0.00;;;21.30;99.90;;;;;;5081535;28;20028;-79
2023/08/31 08:21:39;;;;;;;0.57;0.43;;;21.40;99.90;;;;;;5063846;28;20108;-81
2023/08/31 08:24:08;;;;;;;1.50;1.40;;;21.00;99.90;;;;;;5080990;28;20016;-78
2023/08/31 08:26:34;;;;;;;4.40;1.58;;;21.00;99.90;;;;;;5063108;28;20028;-78
2023/08/31 08:29:00;;;;;;;0.10;0.10;;;21.20;99.90;;;;;;5081806;28;20012;-78
2023/08/31 08:31:26;;;;;;;0.00;0.00;;;21.30;99.90;;;;;;5081611;28;20165;-77
2023/08/31 08:33:54;;;;;;;0.00;0.00;;;21.30;99.90;;;;;;5080889;28;20015;-83
2023/08/31 08:36:20;;;;;;;0.00;0.00;;;21.30;99.90;;;;;;5063956;28;20113;-81
2023/08/31 08:38:48;;;;;;;0.10;0.10;;;21.30;99.90;;;;;;5081349;28;20682;-79
2023/08/31 08:41:31;;;;;;;1.55;1.45;;;21.50;99.90;;;;;;5062134;28;20020;-84
2023/08/31 08:44:36;;;;;;;0.00;0.00;;;22.00;99.90;;;;;;5081110;28;20684;-80
2023/08/31 08:47:03;;;;;;;0.00;0.00;;;21.90;99.90;;;;;;5063362;28;20082;-81
2023/08/31 08:49:36;;;;;;;0.05;0.05;;;22.30;99.90;;;;;;5079970;28;20411;-83
2023/08/31 08:52:17;;;;;;;1.23;1.13;;;22.50;99.90;;;;;;5079874;28;20111;-81
2023/08/31 08:54:48;;;;;;;0.10;0.10;;;22.80;99.90;;;;;;5079176;28;20262;-80
2023/08/31 08:57:25;;;;;;;0.00;0.00;;;22.60;99.90;;;;;;5079766;28;20028;-80
2023/08/31 08:59:56;;;;;;;0.00;0.00;;;22.60;99.90;;;;;;5079152;28;20020;-80
2023/08/31 09:02:27;;;;;;;0.05;0.05;;;22.10;99.90;;;;;;5079727;28;20209;-80
2023/08/31 09:04:54;;;;;;;0.57;0.57;;;22.80;99.90;;;;;;5079820;28;20020;-82
2023/08/31 09:07:21;;;;;;;0.00;0.00;;;22.50;99.90;;;;;;5079913;28;20020;-80
2023/08/31 09:09:52;;;;;;;0.00;0.00;;;22.60;99.90;;;;;;5079919;28;20107;-77
2023/08/31 09:12:21;;;;;;;0.00;0.00;;;22.80;99.90;;;;;;5063630;28;20048;-78
2023/08/31 09:15:04;;;;;;;0.10;0.10;;;23.00;99.90;;;;;;5082217;28;20336;-78
2023/08/31 09:17:42;;;;;;;0.00;0.00;;;23.20;99.90;;;;;;5081090;28;20040;-78
2023/08/31 09:20:09;;;;;;;0.10;0.10;;;23.40;99.90;;;;;;5063484;28;20456;-79
2023/08/31 09:22:35;;;;;;;0.30;0.30;;;23.40;99.90;;;;;;5079943;28;20035;-82
2023/08/31 09:25:02;;;;;;;0.17;0.17;;;23.40;99.90;;;;;;5080783;28;20016;-79
2023/08/31 09:27:38;;;;;;;1.05;1.05;;;23.50;99.90;;;;;;5061227;28;20114;-80
2023/08/31 09:30:07;;;;;;;0.30;0.30;;;23.50;99.90;;;;;;5079847;28;20058;-78
2023/08/31 09:32:33;;;;;;;7.60;1.85;;;23.30;99.90;;;;;;5079580;28;20233;-78
2023/08/31 09:35:02;;;;;;;0.00;0.00;;;22.20;99.90;;;;;;5060927;28;20332;-79
2023/08/31 09:37:28;;;;;;;0.00;0.00;;;23.20;99.90;;;;;;5064793;28;20462;-80
2023/08/31 09:39:54;;;;;;;0.13;0.13;;;23.50;99.90;;;;;;5062658;28;20719;-82
2023/08/31 09:42:21;;;;;;;0.00;0.00;;;23.40;99.90;;;;;;5081022;28;20393;-80
2023/08/31 09:44:49;;;;;;;1.85;1.77;;;24.10;99.90;;;;;;5080508;28;20237;-80
2023/08/31 09:47:18;;;;;;;0.00;0.00;;;24.00;99.50;;;;;;5061702;28;20024;-80
2023/08/31 09:49:45;;;;;;;0.00;0.00;;;24.20;98.60;;;;;;5060769;28;20493;-79
2023/08/31 09:52:12;;;;;;;0.00;0.00;;;22.60;98.90;;;;;;5061580;28;20032;-81
2023/08/31 09:54:40;;;;;;;0.00;0.00;;;24.70;99.50;;;;;;5081959;28;20097;-80
2023/08/31 09:57:06;;;;;;;0.10;0.10;;;;;;;;;;5061895;28;20343;-80
2023/08/31 09:59:34;;;;;;;0.00;0.00;;;24.80;97.20;;;;;;5080246;28;20016;-77
2023/08/31 10:02:01;;;;;;;0.05;0.05;;;24.80;98.40;;;;;;5079847;28;20032;-80
2023/08/31 10:04:33;;;;;;;0.00;0.00;;;24.80;98.10;;;;;;5079611;28;20065;-77
2023/08/31 10:07:00;;;;;;;0.00;0.00;;;25.20;97.60;;;;;;5061005;28;20153;-79
2023/08/31 10:09:26;;;;;;;0.00;0.00;;;25.20;97.40;;;;;;5061579;28;20074;-79
2023/08/31 10:11:53;;;;;;;0.10;0.10;;;24.90;97.70;;;;;;5060947;28;20504;-78
2023/08/31 10:14:21;;;;;;;0.00;0.00;;;24.60;97.10;;;;;;5080222;28;20437;-79
2023/08/31 10:16:52;;;;;;;0.20;0.17;;;24.60;97.10;;;;;;5080637;28;20060;-79
2023/08/31 10:19:18;;;;;;;0.00;0.00;;;24.50;97.70;;;;;;5061025;28;20144;-82
2023/08/31 10:21:44;;;;;;;0.00;0.00;;;24.60;98.10;;;;;;5061772;28;20512;-80
2023/08/31 10:24:12;;;;;;;0.00;0.00;;;;;;;;;;5079292;28;20073;-78
2023/08/31 10:26:38;;;;;;;0.00;0.00;;;24.70;97.60;;;;;;5080735;28;20038;-79
2023/08/31 10:29:24;;;;;;;0.00;0.00;;;24.80;97.80;;;;;;5079984;28;20020;-81
2023/08/31 10:31:53;;;;;;;0.00;0.00;;;25.10;98.40;;;;;;5078755;28;20097;-84
2023/08/31 10:34:41;;;;;;;0.10;0.10;;;25.20;99.20;;;;;;5059916;28;20032;-79
2023/08/31 10:37:31;;;;;;;0.20;0.20;;;25.10;99.00;;;;;;5060655;28;20328;-81
2023/08/31 10:40:18;;;;;;;0.52;0.30;;;24.80;98.70;;;;;;5060009;28;20079;-82
2023/08/31 10:43:26;;;;;;;0.00;0.00;;;24.60;97.40;;;;;;5060692;28;20040;-83
2023/08/31 10:45:52;;;;;;;0.00;0.00;;;24.90;97.90;;;;;;5059997;28;20032;-81
2023/08/31 10:48:20;;;;;;;0.00;0.00;;;25.40;97.70;;;;;;5078440;28;20035;-85
2023/08/31 10:50:53;;;;;;;5.57;0.47;;;25.60;97.70;;;;;;5078916;28;20020;-81
2023/08/31 10:53:27;;;;;;;0.00;0.00;;;25.50;97.60;;;;;;5078062;28;20027;-81
2023/08/31 10:55:53;;;;;;;0.00;0.00;;;25.40;98.70;;;;;;5078716;28;20111;-84
2023/08/31 10:58:19;;;;;;;0.00;0.00;;;25.60;97.30;;;;;;5060555;28;20162;-80
2023/08/31 11:00:56;;;;;;;0.00;0.00;;;25.80;97.40;;;;;;5078625;28;20028;-81
2023/08/31 11:03:25;;;;;;;0.00;0.00;;;24.20;96.50;;;;;;5060907;28;20668;-83
2023/08/31 11:06:02;;;;;;;0.00;0.00;;;29.50;98.10;;;;;;5078363;28;20017;-82
2023/08/31 11:08:31;;;;;;;0.00;0.00;;;26.00;97.00;;;;;;5061434;28;20073;-85
2023/08/31 11:10:57;;;;;;;0.35;0.35;;;26.60;97.40;;;;;;5078525;28;20073;-80
2023/08/31 11:13:26;;;;;;;0.00;0.00;;;26.60;96.20;;;;;;5079223;28;20497;-86
2023/08/31 11:16:00;;;;;;;0.00;0.00;;;26.60;95.70;;;;;;5078286;28;20716;-77
2023/08/31 11:18:26;;;;;;;0.70;0.70;;;27.00;95.50;;;;;;5078586;28;20028;-82
2023/08/31 11:20:55;;;;;;;0.80;0.32;;;27.10;94.10;;;;;;5078927;28;20684;-77
2023/08/31 11:23:29;;;;;;;0.10;0.10;;;27.20;94.00;;;;;;5060592;28;20623;-78
2023/08/31 11:25:56;;;;;;;0.00;0.00;;;;;;;;;;5061787;28;20024;-94
2023/08/31 11:28:22;;;;;;;0.00;0.00;;;27.60;92.20;;;;;;5079768;28;20095;-78
2023/08/31 11:30:48;;;;;;;0.00;0.00;;;30.60;93.70;;;;;;5060609;28;20103;-76
2023/08/31 11:33:17;;;;;;;0.00;0.00;;;28.00;92.50;;;;;;5078640;28;20024;-76
2023/08/31 11:35:44;;;;;;;0.00;0.00;;;28.20;90.70;;;;;;5080045;28;20016;-79
2023/08/31 11:38:11;;;;;;;0.00;0.00;;;28.90;90.10;;;;;;5078934;28;20661;-77
2023/08/31 11:40:37;;;;;;;0.00;0.00;;;28.70;90.30;;;;;;5061770;28;20035;-79
2023/08/31 11:43:04;;;;;;;0.00;0.00;;;29.10;90.30;;;;;;5062910;28;20731;-80
2023/08/31 11:45:36;;;;;;;0.00;0.00;;;29.00;89.40;;;;;;5078644;28;20031;-77
2023/08/31 11:48:02;;;;;;;0.00;0.00;;;28.90;88.30;;;;;;5078149;28;20016;-79
2023/08/31 11:50:29;;;;;;;0.00;0.00;;;28.70;86.10;;;;;;5079192;28;20020;-84
2023/08/31 11:52:57;;;;;;;0.00;0.00;;;29.10;85.20;;;;;;5085480;28;20013;-81
2023/08/31 11:55:31;;;;;;;0.03;0.03;;;;;;;;;;5062239;28;20012;-82
2023/08/31 11:57:57;;;;;;;0.00;0.00;;;28.90;83.00;;;;;;5078551;28;20036;-77
2023/08/31 12:00:25;;;;;;;0.00;0.00;;;29.10;85.40;;;;;;5064121;28;20016;-77
2023/08/31 12:03:04;;;;;;;0.00;0.00;;;29.10;85.70;;;;;;5082312;28;20016;-78
2023/08/31 12:05:49;;;;;;;0.00;0.00;;;28.50;83.00;;;;;;5082866;28;20116;-78
2023/08/31 12:08:25;;;;;;;0.10;0.10;;;29.10;86.50;;;;;;5064480;28;20028;-79
2023/08/31 12:11:08;;;;;;;0.00;0.00;;;29.50;83.90;;;;;;5083060;28;20016;-78
2023/08/31 12:13:34;;;;;;;0.30;0.22;;;29.30;82.60;;;;;;5081930;28;20027;-79
2023/08/31 12:16:01;;;;;;;0.00;0.00;;;29.60;83.10;;;;;;5085870;28;20020;-78
2023/08/31 12:18:33;;;;;;;0.25;0.25;;;29.00;81.90;;;;;;5083762;28;20156;-79
2023/08/31 12:21:00;;;;;;;0.00;0.00;;;29.20;79.60;;;;;;5083516;28;20024;-83
2023/08/31 12:23:26;;;;;;;0.00;0.00;;;29.30;78.90;;;;;;5084653;28;20024;-79
2023/08/31 12:25:57;;;;;;;0.00;0.00;;;29.60;78.70;;;;;;5082379;28;20086;-79
2023/08/31 12:28:29;;;;;;;0.10;0.10;;;29.70;80.00;;;;;;5063669;28;20020;-80
2023/08/31 12:30:57;;;;;;;0.00;0.00;;;29.80;79.70;;;;;;5082861;28;20190;-77
2023/08/31 12:33:23;;;;;;;0.00;0.00;;;29.90;78.00;;;;;;5064095;28;20031;-78
2023/08/31 12:35:49;;;;;;;0.00;0.00;;;29.90;79.70;;;;;;5065290;28;20227;-78
2023/08/31 12:38:15;;;;;;;0.28;0.28;;;29.10;79.50;;;;;;5064305;28;20027;-77
2023/08/31 12:40:41;;;;;;;0.10;0.10;;;28.50;80.40;;;;;;5082287;28;20021;-81
2023/08/31 12:43:07;;;;;;;0.80;0.57;;;28.30;80.30;;;;;;5081077;28;20021;-77
2023/08/31 12:45:37;;;;;;;0.00;0.00;;;28.70;79.50;;;;;;5081056;28;20040;-78
2023/08/31 12:48:05;;;;;;;0.57;0.52;;;28.80;79.30;;;;;;5063322;28;20031;-78
2023/08/31 12:50:31;;;;;;;0.32;0.20;;;;;;;;;;5080856;28;20044;-79
2023/08/31 12:52:58;;;;;;;0.00;0.00;;;29.20;77.00;;;;;;5080259;28;20022;-77
2023/08/31 12:55:24;;;;;;;0.00;0.00;;;29.30;79.20;;;;;;5080884;28;20607;-77
2023/08/31 12:57:55;;;;;;;0.47;0.45;;;29.60;79.60;;;;;;5080265;28;20086;-77
2023/08/31 13:00:24;;;;;;;0.05;0.05;;;30.00;78.20;;;;;;5080785;28;20099;-78